Time;durP1;ratioP1;P1;durP2;ratioP2;P2;SDS_P1;SDS_P2;PMS_P1;PMS_P2;Temp;Humidity;BMP_temperature;BMP_pressure;BME280_temperature;BME280_humidity;BME280_pressure;Samples;Min_cycle;Max_cycle;Signal;HPM_P1;HPM_P2
2023/10/08 00:02:26;;;;;;;;;1.00;1.00;;;;;23.10;47.62;100613.66;109595;1252;20829;-39
2023/10/08 00:04:54;;;;;;;;;1.00;1.00;;;;;23.12;47.53;100622.83;109608;1252;23026;-38
2023/10/08 00:07:21;;;;;;;;;1.00;1.00;;;;;23.12;47.69;100626.54;109581;1261;20228;-38
2023/10/08 00:09:50;;;;;;;;;1.00;1.00;;;;;23.12;47.54;100620.76;109564;1268;19399;-38
2023/10/08 00:12:19;;;;;;;;;1.67;1.67;;;;;23.12;47.36;100622.71;109547;1252;22636;-38
2023/10/08 00:14:49;;;;;;;;;1.00;1.00;;;;;23.13;47.53;100618.45;109607;1253;20086;-38
2023/10/08 00:17:16;;;;;;;;;1.50;1.50;;;;;23.12;47.65;100622.93;109625;1260;20670;-39
2023/10/08 00:19:44;;;;;;;;;1.00;1.00;;;;;23.12;47.39;100619.17;109592;1268;21806;-38
2023/10/08 00:22:13;;;;;;;;;2.00;2.00;;;;;23.11;47.37;100629.45;109599;1268;18685;-40
2023/10/08 00:24:41;;;;;;;;;1.00;1.00;;;;;23.12;47.45;100628.46;109616;1260;20634;-38
2023/10/08 00:27:08;;;;;;;;;2.00;2.00;;;;;23.12;47.61;100623.38;109599;1252;19696;-39
2023/10/08 00:29:39;;;;;;;;;1.00;1.00;;;;;23.11;47.48;100628.47;109631;1252;20118;-39
2023/10/08 00:32:12;;;;;;;;;1.00;1.00;;;;;23.09;47.45;100638.11;109580;1252;20774;-38
2023/10/08 00:34:42;;;;;;;;;1.00;1.00;;;;;23.09;47.55;100642.58;109645;1268;19612;-39
2023/10/08 00:37:10;;;;;;;;;1.00;1.00;;;;;23.09;47.46;100638.16;109558;1252;22884;-37
2023/10/08 00:39:39;;;;;;;;;2.00;1.00;;;;;23.10;47.55;100623.99;109630;1260;22364;-38
2023/10/08 00:42:07;;;;;;;;;1.00;1.00;;;;;23.09;47.55;100623.58;109592;1252;22693;-38
2023/10/08 00:44:41;;;;;;;;;2.00;1.00;;;;;23.08;47.57;100617.95;109626;1253;20140;-38
2023/10/08 00:47:11;;;;;;;;;1.00;1.00;;;;;23.07;47.57;100620.98;109571;1252;20660;-38
2023/10/08 00:50:02;;;;;;;;;1.00;1.00;;;;;23.07;47.76;100625.98;109547;1260;18374;-38
2023/10/08 00:52:40;;;;;;;;;1.00;1.00;;;;;23.08;47.35;100637.45;109570;1253;20170;-38
2023/10/08 00:55:09;;;;;;;;;1.00;1.00;;;;;23.07;47.50;100652.98;109598;1260;20847;-39
2023/10/08 00:57:38;;;;;;;;;1.00;1.00;;;;;23.09;47.61;100658.98;109604;1252;19584;-38
2023/10/08 01:00:15;;;;;;;;;1.00;1.00;;;;;23.09;47.35;100662.96;109611;1268;18649;-40
2023/10/08 01:02:48;;;;;;;;;1.00;1.00;;;;;23.07;47.50;100671.79;109506;1252;20738;-40
2023/10/08 01:05:18;;;;;;;;;1.00;1.00;;;;;23.07;47.67;100679.27;109553;1261;19561;-40
2023/10/08 01:07:48;;;;;;;;;1.00;1.00;;;;;23.08;47.31;100683.41;109532;1252;20077;-39
2023/10/08 01:10:19;;;;;;;;;1.00;1.00;;;;;23.07;47.57;100682.33;109541;1268;22717;-39
2023/10/08 01:13:02;;;;;;;;;1.00;1.00;;;;;23.07;47.60;100683.86;109545;1252;19697;-39
2023/10/08 01:15:31;;;;;;;;;1.33;1.33;;;;;23.06;47.49;100676.99;109677;1268;18555;-37
2023/10/08 01:18:00;;;;;;;;;1.00;1.00;;;;;23.06;47.51;100669.89;109601;1268;19604;-38
2023/10/08 01:20:34;;;;;;;;;1.00;1.00;;;;;23.04;47.50;100672.64;109600;1252;19749;-39
2023/10/08 01:23:09;;;;;;;;;2.00;1.00;;;;;23.06;47.46;100676.92;109603;1252;20266;-39
2023/10/08 01:25:37;;;;;;;;;1.00;1.00;;;;;23.04;47.61;100688.31;109604;1252;20812;-39
2023/10/08 01:28:09;;;;;;;;;1.00;1.00;;;;;23.01;47.50;100688.78;109603;1252;19652;-39
2023/10/08 01:30:41;;;;;;;;;1.00;1.00;;;;;23.03;47.39;100700.02;109578;1268;20198;-39
2023/10/08 01:33:13;;;;;;;;;1.00;1.00;;;;;23.01;47.55;100695.33;109651;1264;20783;-39
2023/10/08 01:35:40;;;;;;;;;1.00;1.00;;;;;23.03;47.63;100696.08;109595;1268;18354;-39
2023/10/08 01:38:09;;;;;;;;;1.00;1.00;;;;;23.05;47.45;100691.31;109574;1268;19751;-39
2023/10/08 01:40:36;;;;;;;;;1.00;1.00;;;;;23.04;47.36;100690.77;109591;1261;20791;-39
2023/10/08 01:43:05;;;;;;;;;1.00;1.00;;;;;23.04;47.24;100693.67;109595;1252;22288;-39
2023/10/08 01:45:32;;;;;;;;;1.00;1.00;;;;;23.03;47.56;100704.66;109543;1252;22905;-38
2023/10/08 01:47:59;;;;;;;;;1.00;1.00;;;;;23.02;47.39;100719.70;109586;1253;21192;-39
2023/10/08 01:50:29;;;;;;;;;1.00;1.00;;;;;23.03;47.45;100728.59;109565;1260;22266;-38
2023/10/08 01:52:56;;;;;;;;;1.00;1.00;;;;;23.05;47.36;100739.56;109581;1252;20162;-39
2023/10/08 01:55:24;;;;;;;;;1.00;1.00;;;;;23.04;47.24;100753.61;109577;1268;19333;-38
2023/10/08 01:57:52;;;;;;;;;1.00;1.00;;;;;23.04;47.17;100755.63;109586;1252;20574;-39
2023/10/08 02:00:20;;;;;;;;;1.00;1.00;;;;;23.05;47.07;100749.13;109576;1253;20506;-39
2023/10/08 02:02:47;;;;;;;;;1.00;1.00;;;;;23.05;47.39;100741.80;109608;1253;20712;-39
2023/10/08 02:05:15;;;;;;;;;2.00;2.00;;;;;23.03;47.34;100749.83;109541;1261;22342;-37
2023/10/08 02:07:44;;;;;;;;;1.00;1.00;;;;;23.03;47.54;100759.46;109642;1252;21517;-40
2023/10/08 02:10:11;;;;;;;;;1.00;1.00;;;;;23.05;47.15;100763.66;109656;1268;22135;-39
2023/10/08 02:12:39;;;;;;;;;1.00;1.00;;;;;23.03;47.37;100766.02;109698;1254;18397;-39
2023/10/08 02:15:07;;;;;;;;;1.00;1.00;;;;;23.03;47.43;100761.81;109587;1268;20029;-38
2023/10/08 02:17:34;;;;;;;;;1.00;1.00;;;;;23.06;47.15;100761.14;109585;1252;20771;-38
2023/10/08 02:20:04;;;;;;;;;1.00;1.00;;;;;23.03;47.41;100756.19;109638;1252;20034;-38
2023/10/08 02:22:32;;;;;;;;;1.00;1.00;;;;;23.01;47.09;100764.18;109615;1252;20124;-38
2023/10/08 02:25:02;;;;;;;;;1.00;1.00;;;;;23.03;47.20;100766.08;109558;1252;20848;-38
2023/10/08 02:27:32;;;;;;;;;1.00;1.00;;;;;23.04;47.07;100775.52;109597;1253;19671;-39
2023/10/08 02:30:02;;;;;;;;;1.00;1.00;;;;;23.03;47.03;100780.17;109606;1261;20085;-38
2023/10/08 02:32:29;;;;;;;;;1.50;1.50;;;;;23.02;47.08;100781.43;109489;1253;19393;-38
2023/10/08 02:34:59;;;;;;;;;1.00;1.00;;;;;23.02;47.26;100782.58;109576;1252;19700;-38
2023/10/08 02:37:27;;;;;;;;;1.00;1.00;;;;;23.03;47.11;100787.39;109596;1268;18801;-38
2023/10/08 02:39:55;;;;;;;;;1.00;1.00;;;;;23.03;47.13;100794.54;109619;1253;19388;-38
2023/10/08 02:42:24;;;;;;;;;1.00;1.00;;;;;23.02;47.09;100797.88;109601;1261;18438;-39
2023/10/08 02:44:51;;;;;;;;;1.00;1.00;;;;;23.01;47.22;100803.07;109573;1252;20048;-39
2023/10/08 02:47:20;;;;;;;;;1.00;1.00;;;;;23.00;46.97;100801.01;109578;1268;19366;-39
2023/10/08 02:49:48;;;;;;;;;1.00;1.00;;;;;23.00;47.11;100800.30;109704;1267;18543;-39
2023/10/08 02:52:16;;;;;;;;;1.00;1.00;;;;;23.00;46.89;100806.70;109657;1252;21814;-39
2023/10/08 02:54:44;;;;;;;;;1.00;1.00;;;;;23.00;46.88;100814.77;109567;1254;19392;-39
2023/10/08 02:57:14;;;;;;;;;1.00;1.00;;;;;23.00;47.14;100818.50;109598;1254;19732;-39
2023/10/08 02:59:42;;;;;;;;;1.00;1.00;;;;;23.00;46.91;100818.98;109597;1253;19041;-38
2023/10/08 03:02:15;;;;;;;;;1.00;1.00;;;;;23.00;46.85;100831.33;109604;1253;19377;-38
2023/10/08 03:04:45;;;;;;;;;1.00;1.00;;;;;22.99;46.69;100835.60;109624;1252;22236;-38
2023/10/08 03:07:21;;;;;;;;;1.00;1.00;;;;;23.01;46.80;100837.06;109587;1268;18672;-39
2023/10/08 03:09:49;;;;;;;;;1.00;1.00;;;;;23.00;46.93;100845.77;109629;1268;20715;-38
2023/10/08 03:12:17;;;;;;;;;1.00;1.00;;;;;22.99;46.87;100846.52;109637;1268;18426;-38
2023/10/08 03:15:00;;;;;;;;;1.00;1.00;;;;;22.99;46.91;100850.67;109687;1268;18815;-39
2023/10/08 03:17:29;;;;;;;;;1.00;1.00;;;;;22.98;46.66;100857.73;109623;1268;22749;-39
2023/10/08 03:20:01;;;;;;;;;1.00;1.00;;;;;22.98;47.11;100862.00;109591;1253;18464;-39
2023/10/08 03:22:34;;;;;;;;;1.00;1.00;;;;;22.98;46.86;100864.89;109606;1252;20063;-38
2023/10/08 03:25:15;;;;;;;;;1.00;1.00;;;;;22.99;46.65;100870.89;109612;1260;19492;-38
2023/10/08 03:27:43;;;;;;;;;1.00;1.00;;;;;22.98;46.82;100882.77;109645;1260;19683;-38
2023/10/08 03:30:14;;;;;;;;;1.00;1.00;;;;;22.98;46.58;100886.70;109565;1254;21320;-39
2023/10/08 03:32:42;;;;;;;;;1.00;1.00;;;;;23.00;46.75;100891.77;109547;1254;20840;-39
2023/10/08 03:35:10;;;;;;;;;1.00;1.00;;;;;22.99;46.57;100898.98;109558;1253;19745;-39
2023/10/08 03:37:41;;;;;;;;;1.00;1.00;;;;;22.98;46.88;100900.80;109528;1268;20261;-38
2023/10/08 03:40:24;;;;;;;;;1.00;1.00;;;;;23.00;46.50;100903.73;109520;1252;21587;-39
2023/10/08 03:42:55;;;;;;;;;1.00;1.00;;;;;22.97;46.47;100904.40;109650;1268;22152;-39
2023/10/08 03:48:06;;;;;;;;;1.00;1.00;;;;;22.98;46.67;100915.21;109572;1260;21203;-38
2023/10/08 03:50:40;;;;;;;;;1.00;1.00;;;;;22.97;46.65;100920.03;109591;1254;19726;-39
2023/10/08 03:53:11;;;;;;;;;1.00;1.00;;;;;22.97;46.65;100924.84;109580;1252;20347;-38
2023/10/08 03:55:40;;;;;;;;;1.00;1.00;;;;;22.99;46.58;100928.16;109605;1268;22202;-39
2023/10/08 03:58:11;;;;;;;;;1.00;1.00;;;;;22.97;46.34;100930.41;109584;1252;19641;-38
2023/10/08 04:00:42;;;;;;;;;1.00;1.00;;;;;22.98;46.22;100933.58;109613;1253;20096;-39
2023/10/08 04:03:11;;;;;;;;;1.00;1.00;;;;;22.97;46.62;100939.75;109611;1268;19393;-39
2023/10/08 04:05:59;;;;;;;;;1.00;1.00;;;;;23.00;46.28;100949.30;109627;1253;19671;-39
2023/10/08 04:08:42;;;;;;;;;1.00;1.00;;;;;22.98;46.51;100952.80;109588;1260;19962;-39
2023/10/08 04:11:22;;;;;;;;;1.00;1.00;;;;;22.95;46.43;100955.44;109587;1252;22704;-39
2023/10/08 04:13:50;;;;;;;;;1.00;1.00;;;;;22.96;46.28;100955.81;109587;1252;19721;-39
2023/10/08 04:16:19;;;;;;;;;1.00;1.00;;;;;22.96;46.52;100962.98;109581;1268;23009;-38
2023/10/08 04:18:50;;;;;;;;;1.00;1.00;;;;;22.94;46.40;100966.97;109600;1254;20827;-39
2023/10/08 04:21:20;;;;;;;;;1.00;1.00;;;;;22.95;46.57;100968.17;109605;1260;19574;-39
2023/10/08 04:23:52;;;;;;;;;1.00;1.00;;;;;22.96;46.20;100972.05;109619;1268;18694;-39
2023/10/08 04:26:23;;;;;;;;;1.00;1.00;;;;;22.95;46.35;100978.88;109567;1253;20835;-39
2023/10/08 04:28:54;;;;;;;;;1.00;1.00;;;;;22.94;46.31;100982.88;109568;1261;20320;-38
2023/10/08 04:31:24;;;;;;;;;1.00;1.00;;;;;22.94;46.38;100987.80;109595;1268;22400;-39
2023/10/08 04:33:52;;;;;;;;;1.00;1.00;;;;;22.94;46.25;100992.98;109620;1252;20700;-39
2023/10/08 04:36:20;;;;;;;;;1.00;1.00;;;;;22.92;46.35;100996.04;109589;1268;20792;-39
2023/10/08 04:38:48;;;;;;;;;1.00;1.00;;;;;22.94;46.08;101001.23;109568;1262;20406;-39
2023/10/08 04:41:18;;;;;;;;;1.00;1.00;;;;;22.91;46.27;100995.34;109578;1264;20814;-39
2023/10/08 04:43:49;;;;;;;;;1.00;1.00;;;;;22.93;46.18;100994.41;109602;1252;19710;-39
2023/10/08 04:46:33;;;;;;;;;1.00;1.00;;;;;22.93;46.21;100990.58;109578;1253;20192;-39
2023/10/08 04:49:05;;;;;;;;;1.00;1.00;;;;;22.95;46.16;100998.93;109573;1253;20752;-39
2023/10/08 04:51:40;;;;;;;;;1.00;1.00;;;;;22.94;45.94;100997.95;109586;1268;19587;-39
2023/10/08 04:54:07;;;;;;;;;1.00;1.00;;;;;22.93;46.22;100996.15;109589;1252;20250;-39
2023/10/08 04:56:34;;;;;;;;;1.00;1.00;;;;;22.94;46.03;101000.84;109586;1252;22160;-39
2023/10/08 04:59:05;;;;;;;;;1.00;1.00;;;;;22.92;46.22;101005.39;109576;1261;19698;-39
2023/10/08 05:01:40;;;;;;;;;1.00;1.00;;;;;22.91;45.91;101007.02;109659;1252;20028;-39
2023/10/08 05:04:23;;;;;;;;;1.00;1.00;;;;;22.93;46.04;101008.34;109634;1252;20786;-38
2023/10/08 05:07:16;;;;;;;;;1.00;1.00;;;;;22.95;45.86;101013.90;109614;1253;19684;-38
2023/10/08 05:09:52;;;;;;;;;1.00;1.00;;;;;22.92;45.89;101018.71;109559;1268;18737;-39
2023/10/08 05:12:37;;;;;;;;;1.00;1.00;;;;;22.92;45.93;101022.43;109542;1252;20763;-39
2023/10/08 05:15:33;;;;;;;;;1.00;1.00;;;;;22.94;45.96;101024.98;109602;1268;21240;-39
2023/10/08 05:18:13;;;;;;;;;1.00;1.00;;;;;22.92;46.06;101024.45;109605;1254;20092;-40
2023/10/08 05:20:44;;;;;;;;;1.00;1.00;;;;;22.94;45.87;101032.15;109621;1268;19394;-38
2023/10/08 05:26:08;;;;;;;;;1.00;1.00;;;;;22.91;45.58;101046.37;108668;1268;20020;-38
2023/10/08 05:28:46;;;;;;;;;1.00;1.00;;;;;22.91;45.56;101051.73;108677;1273;19417;-39
2023/10/08 05:31:31;;;;;;;;;1.00;1.00;;;;;22.90;45.67;101057.13;108666;1258;19737;-39
2023/10/08 05:34:14;;;;;;;;;1.00;1.00;;;;;22.90;45.85;101073.90;108657;1258;20104;-39
2023/10/08 05:37:10;;;;;;;;;1.00;1.00;;;;;22.91;45.63;101077.13;108647;1273;20775;-39
2023/10/08 05:39:42;;;;;;;;;1.00;1.00;;;;;22.94;45.52;101084.44;108737;1273;18604;-39
2023/10/08 05:42:20;;;;;;;;;1.00;1.00;;;;;22.94;45.22;101091.00;108649;1258;20042;-39
2023/10/08 05:45:13;;;;;;;;;1.00;1.00;;;;;22.96;45.29;101095.64;108620;1267;20846;-39
2023/10/08 05:47:51;;;;;;;;;1.00;1.00;;;;;22.96;45.28;101104.27;108689;1258;19677;-39
2023/10/08 05:50:42;;;;;;;;;1.00;1.00;;;;;22.98;45.26;101114.54;108730;1258;20103;-39
2023/10/08 05:53:29;;;;;;;;;1.00;1.00;;;;;23.01;45.18;101121.85;108700;1257;20746;-38
2023/10/08 05:56:16;;;;;;;;;1.00;1.00;;;;;23.04;45.38;101135.13;108588;1261;19729;-38
2023/10/08 05:59:00;;;;;;;;;;;;;;;23.11;45.25;101143.09;108690;1258;20106;-38
2023/10/08 06:01:39;;;;;;;;;1.00;1.00;;;;;23.12;45.48;101141.17;108699;1258;19533;-38
2023/10/08 06:04:20;;;;;;;;;2.00;2.00;;;;;23.11;45.44;101146.05;109286;1267;19220;-38
2023/10/08 06:06:57;;;;;;;;;1.00;1.00;;;;;23.17;45.71;101149.15;109623;1252;20089;-38
2023/10/08 06:09:35;;;;;;;;;1.00;1.00;;;;;23.28;45.92;101151.36;109563;1268;20754;-38
2023/10/08 06:12:19;;;;;;;;;1.00;1.00;;;;;23.32;46.08;101156.38;109593;1268;18575;-39
2023/10/08 06:20:24;;;;;;;;;1.00;1.00;;;;;23.43;46.48;101168.81;109631;1268;22218;-37
2023/10/08 06:22:52;;;;;;;;;1.00;1.00;;;;;23.47;46.80;101171.91;109620;1268;18562;-38
2023/10/08 06:25:23;;;;;;;;;1.00;1.00;;;;;23.49;46.69;101174.05;109572;1253;20801;-38
2023/10/08 06:27:54;;;;;;;;;1.00;1.00;;;;;23.48;46.88;101170.23;109602;1252;19706;-39
2023/10/08 06:30:24;;;;;;;;;1.00;1.00;;;;;23.50;46.67;101175.52;109703;1253;21443;-38
2023/10/08 06:32:53;;;;;;;;;1.00;1.00;;;;;23.55;46.48;101174.16;109687;1268;19388;-39
2023/10/08 06:35:26;;;;;;;;;1.00;1.00;;;;;23.57;46.48;101179.52;109690;1252;19678;-39
2023/10/08 06:37:55;;;;;;;;;1.00;1.00;;;;;23.57;46.63;101181.49;109721;1253;18622;-38
2023/10/08 06:40:42;;;;;;;;;1.00;1.00;;;;;23.61;46.55;101185.58;109600;1252;20816;-39
2023/10/08 06:43:14;;;;;;;;;2.00;1.00;;;;;23.63;46.65;101197.06;109602;1252;19648;-39
2023/10/08 06:45:41;;;;;;;;;1.00;1.00;;;;;23.61;46.75;101204.61;109612;1252;20075;-38
2023/10/08 06:48:09;;;;;;;;;1.00;1.00;;;;;23.61;46.51;101212.22;109564;1268;20990;-39
2023/10/08 06:50:36;;;;;;;;;2.00;1.00;;;;;23.66;46.46;101216.69;109601;1268;18532;-38
2023/10/08 06:53:07;;;;;;;;;2.00;2.00;;;;;23.66;46.35;101218.48;109595;1261;19923;-38
2023/10/08 06:55:35;;;;;;;;;2.00;2.00;;;;;23.66;46.65;101223.85;109602;1252;20782;-39
2023/10/08 06:58:05;;;;;;;;;2.00;1.00;;;;;23.71;47.09;101228.55;109578;1252;19671;-38
2023/10/08 07:00:39;;;;;;;;;1.00;1.00;;;;;23.71;47.19;101233.85;109592;1268;18661;-38
2023/10/08 07:03:08;;;;;;;;;1.00;1.00;;;;;23.76;47.80;101239.47;109621;1253;22780;-37
2023/10/08 07:05:40;;;;;;;;;1.00;1.00;;;;;23.78;47.60;101242.25;109683;1253;18433;-37
2023/10/08 07:08:08;;;;;;;;;1.00;1.00;;;;;23.84;47.13;101250.98;109636;1260;20005;-38
2023/10/08 07:10:35;;;;;;;;;4.00;2.00;;;;;23.84;47.27;101257.94;109601;1268;20541;-38
2023/10/08 07:13:03;;;;;;;;;1.00;1.00;;;;;23.86;46.95;101261.86;109697;1252;21009;-36
2023/10/08 07:15:32;;;;;;;;;1.00;1.00;;;;;23.88;46.59;101263.02;109649;1268;18665;-38
2023/10/08 07:18:08;;;;;;;;;1.00;1.00;;;;;23.91;46.55;101266.77;109615;1268;19513;-38
2023/10/08 07:20:39;;;;;;;;;1.00;1.00;;;;;23.95;46.23;101267.97;109623;1268;18218;-38
2023/10/08 07:23:18;;;;;;;;;1.00;1.00;;;;;23.97;46.18;101267.80;109580;1252;20182;-38
2023/10/08 07:25:47;;;;;;;;;2.00;1.00;;;;;24.00;46.22;101270.69;109592;1268;20670;-38
2023/10/08 07:28:14;;;;;;;;;1.50;1.50;;;;;24.03;46.25;101282.49;109580;1252;19654;-40
2023/10/08 07:30:43;;;;;;;;;1.00;1.00;;;;;24.04;45.63;101287.73;109570;1252;21348;-38
2023/10/08 07:33:17;;;;;;;;;1.00;1.00;;;;;24.02;45.50;101289.89;109650;1252;20864;-39
2023/10/08 07:35:51;;;;;;;;;1.00;1.00;;;;;24.00;44.40;101289.02;109677;1252;19703;-39
2023/10/08 07:38:21;;;;;;;;;3.00;2.00;;;;;23.99;43.17;101295.20;109583;1252;21157;-38
2023/10/08 07:40:49;;;;;;;;;1.00;1.00;;;;;23.97;43.26;101287.51;109643;1253;20891;-38
2023/10/08 07:43:20;;;;;;;;;2.00;2.00;;;;;23.96;41.87;101290.45;109580;1268;18685;-37
2023/10/08 07:45:47;;;;;;;;;1.00;1.00;;;;;23.96;41.37;101286.79;109663;1252;20173;-38
2023/10/08 07:48:15;;;;;;;;;4.00;4.00;;;;;23.94;40.73;101289.86;109621;1261;20835;-39
2023/10/08 07:50:43;;;;;;;;;5.00;3.00;;;;;23.94;40.00;101301.95;109734;1267;18519;-39
2023/10/08 07:53:17;;;;;;;;;3.00;3.00;;;;;23.98;40.00;101308.63;109667;1253;22328;-39
2023/10/08 07:55:45;;;;;;;;;2.00;2.00;;;;;23.96;38.61;101299.77;109661;1254;20806;-38
2023/10/08 07:58:14;;;;;;;;;6.00;6.00;;;;;23.91;37.93;101295.79;109610;1268;21438;-38
2023/10/08 08:00:42;;;;;;;;;3.00;3.00;;;;;23.88;37.05;101298.14;109591;1254;18683;-38
2023/10/08 08:03:11;;;;;;;;;5.50;5.50;;;;;23.83;36.74;101300.73;109635;1262;20711;-38
2023/10/08 08:05:40;;;;;;;;;2.00;2.00;;;;;23.70;34.40;101303.55;109606;1262;19493;-38
2023/10/08 08:08:08;;;;;;;;;1.00;1.00;;;;;23.63;33.08;101300.23;109630;1268;18715;-37
2023/10/08 08:10:37;;;;;;;;;1.00;1.00;;;;;23.61;32.49;101303.56;109663;1268;19343;-38
2023/10/08 08:13:06;;;;;;;;;2.00;2.00;;;;;23.60;31.84;101302.48;109654;1254;19689;-37
2023/10/08 08:15:34;;;;;;;;;2.00;2.00;;;;;23.57;30.86;101305.15;109581;1252;20389;-38
2023/10/08 08:18:05;;;;;;;;;1.00;1.00;;;;;23.52;30.35;101307.05;109588;1252;20851;-38
2023/10/08 08:20:38;;;;;;;;;1.00;1.00;;;;;23.52;30.30;101307.64;109580;1252;19675;-38
2023/10/08 08:23:07;;;;;;;;;1.00;1.00;;;;;23.51;29.76;101318.58;109663;1252;20079;-38
2023/10/08 08:25:42;;;;;;;;;2.00;2.00;;;;;23.49;29.88;101321.70;109677;1252;20678;-38
2023/10/08 08:28:16;;;;;;;;;1.00;1.00;;;;;23.52;29.59;101317.77;109699;1254;19683;-39
2023/10/08 08:30:46;;;;;;;;;1.00;1.00;;;;;23.48;29.41;101321.43;109670;1268;20119;-38
2023/10/08 08:33:16;;;;;;;;;2.00;2.00;;;;;23.46;29.64;101327.23;109675;1254;22396;-38
2023/10/08 08:35:45;;;;;;;;;2.00;2.00;;;;;23.44;29.68;101331.34;109678;1268;18278;-38
2023/10/08 08:38:12;;;;;;;;;5.00;5.00;;;;;23.32;30.31;101332.42;109651;1254;20142;-38
2023/10/08 08:40:40;;;;;;;;;205.00;148.00;;;;;23.30;30.30;101331.88;109611;1262;21067;-38
2023/10/08 08:43:08;;;;;;;;;286.00;208.00;;;;;23.32;29.75;101335.48;109699;1268;18569;-38
2023/10/08 08:45:36;;;;;;;;;;;;;;;23.31;29.72;101344.07;109637;1268;18864;-38
2023/10/08 08:48:04;;;;;;;;;227.00;170.00;;;;;23.29;29.65;101343.90;109608;1268;19556;-38
2023/10/08 08:50:32;;;;;;;;;212.00;151.00;;;;;23.23;29.82;101340.67;109626;1254;19395;-38
2023/10/08 08:52:59;;;;;;;;;173.00;136.00;;;;;23.20;29.32;101340.52;109581;1268;22794;-39
2023/10/08 08:55:28;;;;;;;;;134.00;101.00;;;;;23.19;29.22;101343.73;109576;1252;19419;-38
2023/10/08 08:57:55;;;;;;;;;105.00;79.00;;;;;23.22;28.96;101344.39;109557;1252;20484;-37
2023/10/08 09:00:28;;;;;;;;;90.00;64.00;;;;;23.25;29.21;101355.98;109575;1268;22413;-38
2023/10/08 09:02:55;;;;;;;;;80.00;58.50;;;;;23.20;29.01;101359.91;109586;1252;20789;-38
2023/10/08 09:05:27;;;;;;;;;67.67;49.33;;;;;23.16;28.73;101364.45;109613;1268;18712;-39
2023/10/08 09:07:55;;;;;;;;;61.50;43.50;;;;;23.26;27.92;101368.34;109626;1252;20198;-39
2023/10/08 09:10:27;;;;;;;;;37.50;32.00;;;;;23.27;27.97;101366.64;109599;1268;19412;-38
2023/10/08 09:12:57;;;;;;;;;49.00;32.00;;;;;23.22;27.19;101368.17;109606;1268;18601;-37
2023/10/08 09:15:25;;;;;;;;;31.00;25.00;;;;;23.21;27.46;101374.07;109591;1268;22124;-38
2023/10/08 09:17:53;;;;;;;;;24.00;19.00;;;;;23.06;27.67;101369.52;109602;1268;20751;-38
2023/10/08 09:20:21;;;;;;;;;22.50;19.50;;;;;23.02;28.26;101372.13;109539;1268;21071;-38
2023/10/08 09:22:48;;;;;;;;;21.00;17.00;;;;;23.10;27.73;101371.38;109666;1254;20561;-39
2023/10/08 09:25:16;;;;;;;;;12.00;10.00;;;;;23.11;27.32;101372.58;109659;1254;20789;-39
2023/10/08 09:27:46;;;;;;;;;14.00;13.00;;;;;23.05;27.20;101372.52;109569;1262;20162;-38
2023/10/08 09:30:18;;;;;;;;;12.00;10.00;;;;;23.03;27.52;101376.34;109610;1252;20156;-39
2023/10/08 09:32:45;;;;;;;;;8.00;6.00;;;;;23.04;27.10;101378.25;109565;1254;20906;-37
2023/10/08 09:35:14;;;;;;;;;9.00;7.00;;;;;23.01;26.81;101384.04;109601;1268;21226;-38
2023/10/08 09:37:41;;;;;;;;;8.00;6.00;;;;;22.96;27.48;101376.20;109587;1254;20157;-37
2023/10/08 09:40:09;;;;;;;;;8.00;6.00;;;;;22.98;26.89;101378.62;109615;1254;20718;-38
2023/10/08 09:42:37;;;;;;;;;5.00;5.00;;;;;22.99;26.78;101377.37;109564;1254;19707;-37
2023/10/08 09:45:05;;;;;;;;;7.00;5.00;;;;;22.96;26.83;101378.24;109624;1268;18653;-37
2023/10/08 09:47:33;;;;;;;;;4.50;4.50;;;;;22.93;26.49;101375.01;109683;1252;20913;-36
2023/10/08 09:50:00;;;;;;;;;4.00;4.00;;;;;22.94;26.60;101377.84;109772;1262;22001;-37
2023/10/08 09:52:27;;;;;;;;;4.50;4.50;;;;;22.93;26.36;101384.13;109597;1252;20079;-37
2023/10/08 09:54:55;;;;;;;;;5.00;4.00;;;;;22.89;26.16;101383.95;109659;1252;22845;-38
2023/10/08 09:57:26;;;;;;;;;2.00;2.00;;;;;22.89;26.28;101386.42;109702;1268;22126;-38
2023/10/08 09:59:54;;;;;;;;;3.00;3.00;;;;;22.86;25.92;101385.59;109656;1267;20082;-38
2023/10/08 10:02:26;;;;;;;;;2.00;2.00;;;;;22.86;25.97;101383.79;109579;1253;157088;-37
2023/10/08 10:04:53;;;;;;;;;2.00;2.00;;;;;22.89;25.59;101387.39;109699;1253;19664;-37
2023/10/08 10:07:21;;;;;;;;;3.33;3.33;;;;;22.87;25.79;101389.80;109650;1268;18537;-39
2023/10/08 10:09:49;;;;;;;;;2.00;2.00;;;;;22.85;25.71;101389.46;109582;1268;20753;-38
2023/10/08 10:12:17;;;;;;;;;4.00;2.00;;;;;22.81;25.67;101393.83;109561;1268;20035;-38
2023/10/08 10:14:44;;;;;;;;;1.00;1.00;;;;;22.82;25.58;101401.08;109602;1254;20263;-38
2023/10/08 10:17:12;;;;;;;;;2.00;2.00;;;;;22.81;25.33;101407.20;109592;1268;19448;-37
2023/10/08 10:19:45;;;;;;;;;2.00;2.00;;;;;22.83;25.61;101404.20;109602;1252;19672;-38
2023/10/08 10:22:12;;;;;;;;;2.00;2.00;;;;;22.81;25.58;101408.57;109602;1254;20128;-38
2023/10/08 10:24:41;;;;;;;;;1.00;1.00;;;;;22.80;25.51;101410.09;109625;1254;23847;-38
2023/10/08 10:27:08;;;;;;;;;1.50;1.50;;;;;22.81;25.27;101406.38;109552;1252;19690;-36
2023/10/08 10:29:36;;;;;;;;;2.00;2.00;;;;;22.76;25.41;101411.43;109579;1254;20098;-37
2023/10/08 10:32:05;;;;;;;;;2.00;2.00;;;;;22.77;25.27;101413.45;109655;1253;20862;-38
2023/10/08 10:34:34;;;;;;;;;4.00;1.00;;;;;22.75;25.11;101413.76;109617;1252;19557;-37
2023/10/08 10:37:08;;;;;;;;;2.00;1.00;;;;;22.72;25.00;101418.77;109601;1262;20134;-39
2023/10/08 10:39:39;;;;;;;;;2.00;2.00;;;;;22.72;24.88;101422.48;109607;1268;19402;-38
2023/10/08 10:42:20;;;;;;;;;1.00;1.00;;;;;22.68;25.04;101416.30;109594;1254;19695;-39
2023/10/08 10:44:49;;;;;;;;;1.00;1.00;;;;;22.69;25.03;101415.77;109599;1254;22222;-37
2023/10/08 10:47:42;;;;;;;;;2.00;2.00;;;;;22.69;24.80;101419.96;109658;1268;19607;-36
2023/10/08 10:50:31;;;;;;;;;1.00;1.00;;;;;22.66;24.95;101418.20;109585;1254;19751;-38
2023/10/08 10:53:09;;;;;;;;;1.00;1.00;;;;;22.66;24.78;101424.33;109590;1253;20062;-37
2023/10/08 10:55:37;;;;;;;;;2.00;2.00;;;;;22.64;24.54;101419.56;109607;1254;19262;-38
2023/10/08 10:58:11;;;;;;;;;2.00;2.00;;;;;22.59;24.55;101419.16;109593;1268;18403;-38
2023/10/08 11:00:59;;;;;;;;;4.00;4.00;;;;;22.57;24.90;101415.43;109612;1252;20097;-38
2023/10/08 11:03:28;;;;;;;;;4.00;4.00;;;;;22.58;24.76;101416.91;109594;1253;20980;-38
2023/10/08 11:05:55;;;;;;;;;4.00;4.00;;;;;22.48;24.99;101419.48;109607;1268;19676;-39
2023/10/08 11:08:24;;;;;;;;;4.00;4.00;;;;;22.61;25.71;101416.60;109629;1253;20107;-37
2023/10/08 11:10:51;;;;;;;;;2.00;2.00;;;;;22.72;26.92;101414.08;109688;1262;19397;-37
2023/10/08 11:13:19;;;;;;;;;1.50;1.50;;;;;22.77;27.80;101412.23;109624;1268;18401;-37
2023/10/08 11:15:49;;;;;;;;;5.00;3.00;;;;;22.78;28.69;101413.09;109639;1268;20019;-37
2023/10/08 11:18:16;;;;;;;;;4.00;4.00;;;;;22.81;30.22;101408.67;109661;1252;20854;-37
2023/10/08 11:20:45;;;;;;;;;2.00;2.00;;;;;22.88;32.60;101418.53;109643;1260;20732;-37
2023/10/08 11:23:18;;;;;;;;;5.50;5.00;;;;;22.97;35.92;101416.81;109600;1252;21052;-37
2023/10/08 11:25:46;;;;;;;;;6.00;5.00;;;;;23.02;36.60;101423.94;109586;1268;19392;-37
2023/10/08 11:28:13;;;;;;;;;14.00;9.00;;;;;23.05;37.50;101425.32;109596;1252;19683;-37
2023/10/08 11:30:42;;;;;;;;;10.00;10.00;;;;;23.10;37.42;101430.20;109622;1252;20280;-37
2023/10/08 11:33:15;;;;;;;;;13.00;13.00;;;;;23.17;38.68;101429.17;109580;1252;20885;-37
2023/10/08 11:35:51;;;;;;;;;19.50;15.00;;;;;23.23;40.79;101429.78;109707;1252;20137;-37
2023/10/08 11:38:22;;;;;;;;;16.00;12.00;;;;;23.30;43.54;101423.52;109640;1268;22259;-36
2023/10/08 11:40:49;;;;;;;;;17.00;14.00;;;;;23.32;43.11;101426.36;109603;1252;20785;-37
2023/10/08 11:43:17;;;;;;;;;16.50;15.50;;;;;23.33;43.82;101431.16;109567;1252;20078;-37
2023/10/08 11:45:48;;;;;;;;;10.00;9.00;;;;;23.35;44.33;101431.98;109559;1268;20080;-38
2023/10/08 11:48:21;;;;;;;;;10.00;9.00;;;;;23.32;43.55;101433.36;109576;1252;19376;-37